Time;durP1;ratioP1;P1;durP2;ratioP2;P2;SDS_P1;SDS_P2;PMS_P1;PMS_P2;Temp;Humidity;BMP_temperature;BMP_pressure;BME280_temperature;BME280_humidity;BME280_pressure;Samples;Min_cycle;Max_cycle;Signal;HPM_P1;HPM_P2
2022/06/21 00:02:25;;;;;;;;;;;;;;;;;;5041548;28;1484;-71
2022/06/21 00:04:50;;;;;;;;;;;;;;;;;;5041694;28;827;-72
2022/06/21 00:07:19;;;;;;;;;;;;;;;;;;5041785;28;835;-71
2022/06/21 00:09:44;;;;;;;;;;;;;;;;;;5041293;28;1275;-73
2022/06/21 00:12:11;;;;;;;;;;;;;;;;;;5041900;28;1036;-73
2022/06/21 00:14:37;;;;;;;;;;;;;;;;;;5023731;28;1484;-73
2022/06/21 00:17:02;;;;;;;;;;;;;;;;;;5023512;28;1897;-73
2022/06/21 00:19:27;;;;;;;;;;;;;;;;;;5041498;28;1167;-73
2022/06/21 00:21:53;;;;;;;;;;;;;;;;;;5041433;28;982;-72
2022/06/21 00:24:18;;;;;;;;;;;;;;;;;;5041498;28;1559;-72
2022/06/21 00:26:44;;;;;;;;;;;;;;;;;;5041559;28;812;-72
2022/06/21 00:29:09;;;;;;;;;;;;;;;;;;5041068;28;1460;-72
2022/06/21 00:31:36;;;;;;;;;;;;;;;;;;5041432;28;1425;-73
2022/06/21 00:34:06;;;;;;;;;;;;;;;;;;5041296;28;890;-72
2022/06/21 00:36:35;;;;;;;;;;;;;;;;;;5041322;28;812;-73
2022/06/21 00:39:01;;;;;;;;;;;;;;;;;;5042923;28;1196;-72
2022/06/21 00:41:46;;;;;;;;;;;;;;;;;;5044758;28;1951;-73
2022/06/21 00:44:15;;;;;;;;;;;;;;;;;;5033665;28;1543;-72
2022/06/21 00:46:42;;;;;;;;;;;;;;;;;;5044718;28;1424;-72
2022/06/21 00:49:16;;;;;;;;;;;;;;;;;;5044258;28;1468;-73
2022/06/21 00:51:42;;;;;;;;;;;;;;;;;;5025831;28;1100;-72
2022/06/21 00:54:22;;;;;;;;;;;;;;;;;;5044808;28;1576;-71
2022/06/21 00:56:55;;;;;;;;;;;;;;;;;;5043282;28;1961;-70
2022/06/21 00:59:25;;;;;;;;;;;;;;;;;;5044242;28;1200;-70
2022/06/21 01:01:53;;;;;;;;;;;;;;;;;;5043053;28;1385;-72
2022/06/21 01:04:25;;;;;;;;;;;;;;;;;;5044518;28;1017;-71
2022/06/21 01:06:53;;;;;;;;;;;;;;;;;;5044494;28;894;-71
2022/06/21 01:09:21;;;;;;;;;;;;;;;;;;5043921;28;1519;-71
2022/06/21 01:12:07;;;;;;;;;;;;;;;;;;5044490;28;806;-71
2022/06/21 01:14:35;;;;;;;;;;;;;;;;;;5033454;28;1385;-73
2022/06/21 01:17:00;;;;;;;;;;;;;;;;;;5043956;28;1897;-72
2022/06/21 01:19:34;;;;;;;;;;;;;;;;;;5043947;28;1180;-72
2022/06/21 01:22:02;;;;;;;;;;;;;;;;;;5043817;28;1534;-72
2022/06/21 01:24:36;;;;;;;;;;;;;;;;;;5044099;28;1547;-71
2022/06/21 01:27:03;;;;;;;;;;;;;;;;;;5044034;28;914;-72
2022/06/21 01:29:30;;;;;;;;;;;;;;;;;;5043988;28;1263;-73
2022/06/21 01:31:56;;;;;;;;;;;;;;;;;;5043782;28;1548;-72
2022/06/21 01:34:24;;;;;;;;;;;;;;;;;;5025955;28;1429;-72
2022/06/21 01:36:52;;;;;;;;;;;;;;;;;;5043948;28;1898;-72
2022/06/21 01:39:23;;;;;;;;;;;;;;;;;;5043485;28;1535;-72
2022/06/21 01:41:51;;;;;;;;;;;;;;;;;;5044048;28;878;-72
2022/06/21 01:44:24;;;;;;;;;;;;;;;;;;5044029;28;910;-72
2022/06/21 01:46:49;;;;;;;;;;;;;;;;;;5043809;28;1452;-73
2022/06/21 01:49:16;;;;;;;;;;;;;;;;;;5043292;28;1278;-72
2022/06/21 01:51:49;;;;;;;;;;;;;;;;;;5043561;28;1117;-72
2022/06/21 01:54:15;;;;;;;;;;;;;;;;;;5043674;28;780;-72
2022/06/21 01:56:41;;;;;;;;;;;;;;;;;;5043466;28;1965;-72
2022/06/21 01:59:10;;;;;;;;;;;;;;;;;;5043154;28;1509;-72
2022/06/21 02:01:38;;;;;;;;;;;;;;;;;;5043047;28;1539;-71
2022/06/21 02:04:04;;;;;;;;;;;;;;;;;;5025738;28;1456;-74
2022/06/21 02:06:30;;;;;;;;;;;;;;;;;;5043448;28;1508;-74
2022/06/21 02:09:00;;;;;;;;;;;;;;;;;;5042824;28;1440;-74
2022/06/21 02:11:33;;;;;;;;;;;;;;;;;;5043320;28;822;-73
2022/06/21 02:16:47;;;;;;;;;;;;;;;;;;5043214;28;1890;-72
2022/06/21 02:19:24;;;;;;;;;;;;;;;;;;5043007;28;1279;-72
2022/06/21 02:21:49;;;;;;;;;;;;;;;;;;5043328;28;899;-72
2022/06/21 02:24:15;;;;;;;;;;;;;;;;;;5043291;28;1005;-73
2022/06/21 02:26:40;;;;;;;;;;;;;;;;;;5025607;28;820;-72
2022/06/21 02:29:06;;;;;;;;;;;;;;;;;;5043124;28;1188;-72
2022/06/21 02:31:31;;;;;;;;;;;;;;;;;;5042599;28;1523;-72
2022/06/21 02:33:59;;;;;;;;;;;;;;;;;;5042968;28;900;-74
2022/06/21 02:36:29;;;;;;;;;;;;;;;;;;5042942;28;1476;-73
2022/06/21 02:38:56;;;;;;;;;;;;;;;;;;5042909;28;1894;-73
2022/06/21 02:41:21;;;;;;;;;;;;;;;;;;5025133;28;1323;-73
2022/06/21 02:43:49;;;;;;;;;;;;;;;;;;5025138;28;1462;-71
2022/06/21 02:46:18;;;;;;;;;;;;;;;;;;5042890;28;1476;-73
2022/06/21 02:48:58;;;;;;;;;;;;;;;;;;5042773;28;1258;-73
2022/06/21 02:51:26;;;;;;;;;;;;;;;;;;5042648;28;866;-73
2022/06/21 02:54:07;;;;;;;;;;;;;;;;;;5042872;28;1220;-73
2022/06/21 02:56:38;;;;;;;;;;;;;;;;;;5039882;28;1598;-73
2022/06/21 02:59:03;;;;;;;;;;;;;;;;;;5040790;28;2034;-71
2022/06/21 03:01:36;;;;;;;;;;;;;;;;;;5040108;28;1448;-71
2022/06/21 03:04:03;;;;;;;;;;;;;;;;;;5041265;28;791;-71
2022/06/21 03:06:30;;;;;;;;;;;;;;;;;;5040870;28;993;-72
2022/06/21 03:08:58;;;;;;;;;;;;;;;;;;5040711;28;1269;-71
2022/06/21 03:11:27;;;;;;;;;;;;;;;;;;5041955;28;787;-71
2022/06/21 03:13:53;;;;;;;;;;;;;;;;;;5042356;28;1488;-71
2022/06/21 03:16:18;;;;;;;;;;;;;;;;;;5042812;28;1544;-74
2022/06/21 03:18:48;;;;;;;;;;;;;;;;;;5042152;28;1902;-75
2022/06/21 03:21:14;;;;;;;;;;;;;;;;;;5042439;28;799;-72
2022/06/21 03:23:41;;;;;;;;;;;;;;;;;;5042188;28;1425;-71
2022/06/21 03:26:07;;;;;;;;;;;;;;;;;;5042566;28;855;-72
2022/06/21 03:28:33;;;;;;;;;;;;;;;;;;5041955;28;1258;-72
2022/06/21 03:31:03;;;;;;;;;;;;;;;;;;5042321;28;1607;-72
2022/06/21 03:33:28;;;;;;;;;;;;;;;;;;5041917;28;1414;-72
2022/06/21 03:35:54;;;;;;;;;;;;;;;;;;5042257;28;914;-73
2022/06/21 03:38:19;;;;;;;;;;;;;;;;;;5041974;28;1898;-74
2022/06/21 03:43:31;;;;;;;;;;;;;;;;;;5041866;28;1491;-74
2022/06/21 03:45:58;;;;;;;;;;;;;;;;;;5041877;28;1452;-74
2022/06/21 03:48:30;;;;;;;;;;;;;;;;;;5022168;28;1216;-74
2022/06/21 03:51:14;;;;;;;;;;;;;;;;;;5021985;28;974;-74
2022/06/21 03:53:46;;;;;;;;;;;;;;;;;;5039151;28;1228;-74
2022/06/21 03:56:21;;;;;;;;;;;;;;;;;;5041933;28;1044;-75
2022/06/21 03:58:55;;;;;;;;;;;;;;;;;;5041825;28;1906;-75
2022/06/21 04:01:28;;;;;;;;;;;;;;;;;;5041965;28;1496;-75
2022/06/21 04:03:59;;;;;;;;;;;;;;;;;;5041945;28;945;-75
2022/06/21 04:06:27;;;;;;;;;;;;;;;;;;5042116;28;877;-75
2022/06/21 04:09:00;;;;;;;;;;;;;;;;;;5041607;28;1252;-74
2022/06/21 04:11:31;;;;;;;;;;;;;;;;;;5041748;28;899;-74
2022/06/21 04:14:01;;;;;;;;;;;;;;;;;;5041293;28;1436;-74
2022/06/21 04:16:26;;;;;;;;;;;;;;;;;;5041678;28;1385;-74
2022/06/21 04:19:04;;;;;;;;;;;;;;;;;;5041308;28;1890;-74
2022/06/21 04:21:38;;;;;;;;;;;;;;;;;;5041361;28;1464;-73
2022/06/21 04:24:23;;;;;;;;;;;;;;;;;;5041530;28;830;-71
2022/06/21 04:26:56;;;;;;;;;;;;;;;;;;5041710;28;829;-73
2022/06/21 04:29:24;;;;;;;;;;;;;;;;;;5041206;28;1168;-72
2022/06/21 04:31:55;;;;;;;;;;;;;;;;;;5041400;28;1500;-72
2022/06/21 04:34:23;;;;;;;;;;;;;;;;;;5041073;28;980;-72
2022/06/21 04:37:00;;;;;;;;;;;;;;;;;;5041444;28;1901;-72
2022/06/21 04:39:31;;;;;;;;;;;;;;;;;;5041163;28;1179;-73
2022/06/21 04:41:59;;;;;;;;;;;;;;;;;;5041388;28;795;-73
2022/06/21 04:44:24;;;;;;;;;;;;;;;;;;5041043;28;1476;-72
2022/06/21 04:46:56;;;;;;;;;;;;;;;;;;5040840;28;1483;-73
2022/06/21 04:49:33;;;;;;;;;;;;;;;;;;5040940;28;1270;-72
2022/06/21 04:52:02;;;;;;;;;;;;;;;;;;5041143;28;1106;-73
2022/06/21 04:54:29;;;;;;;;;;;;;;;;;;5041005;28;1436;-73
2022/06/21 04:56:54;;;;;;;;;;;;;;;;;;5041111;28;1914;-73
2022/06/21 04:59:28;;;;;;;;;;;;;;;;;;5040556;28;1449;-73
2022/06/21 05:01:53;;;;;;;;;;;;;;;;;;5040559;28;1484;-73
2022/06/21 05:04:22;;;;;;;;;;;;;;;;;;5040830;28;1491;-75
2022/06/21 05:06:48;;;;;;;;;;;;;;;;;;5037314;28;1453;-74
2022/06/21 05:09:15;;;;;;;;;;;;;;;;;;5023010;28;1497;-77
2022/06/21 05:11:40;;;;;;;;;;;;;;;;;;5041050;28;779;-78
2022/06/21 05:14:08;;;;;;;;;;;;;;;;;;5036863;28;1695;-76
2022/06/21 05:16:35;;;;;;;;;;;;;;;;;;5041027;28;1362;-74
2022/06/21 05:19:08;;;;;;;;;;;;;;;;;;5040719;28;1882;-74
2022/06/21 05:21:37;;;;;;;;;;;;;;;;;;5041000;28;877;-79
2022/06/21 05:24:02;;;;;;;;;;;;;;;;;;5041069;28;1060;-80
2022/06/21 05:26:33;;;;;;;;;;;;;;;;;;5025956;28;1446;-79
2022/06/21 05:29:02;;;;;;;;;;;;;;;;;;5043739;28;1180;-79
2022/06/21 05:31:30;;;;;;;;;;;;;;;;;;5043925;28;1472;-77
2022/06/21 05:33:58;;;;;;;;;;;;;;;;;;5043641;28;1480;-75
2022/06/21 05:36:30;;;;;;;;;;;;;;;;;;5043597;28;780;-73
2022/06/21 05:38:58;;;;;;;;;;;;;;;;;;5042835;28;1972;-74
2022/06/21 05:41:30;;;;;;;;;;;;;;;;;;5043461;28;917;-71
2022/06/21 05:44:00;;;;;;;;;;;;;;;;;;5042776;28;1436;-74
2022/06/21 05:46:27;;;;;;;;;;;;;;;;;;5043278;28;1528;-74
2022/06/21 05:48:54;;;;;;;;;;;;;;;;;;5043048;28;1484;-74
2022/06/21 05:51:22;;;;;;;;;;;;;;;;;;5043518;28;828;-73
2022/06/21 05:53:50;;;;;;;;;;;;;;;;;;5043033;28;1433;-74
2022/06/21 05:56:17;;;;;;;;;;;;;;;;;;5043394;28;1531;-73
2022/06/21 05:58:49;;;;;;;;;;;;;;;;;;5043097;28;1961;-74
2022/06/21 06:01:14;;;;;;;;;;;;;;;;;;5043552;28;1321;-73
2022/06/21 06:03:45;;;;;;;;;;;;;;;;;;5043336;28;791;-74
2022/06/21 06:06:16;;;;;;;;;;;;;;;;;;5042837;28;1491;-74
2022/06/21 06:08:44;;;;;;;;;;;;;;;;;;5042957;28;1153;-74
2022/06/21 06:11:15;;;;;;;;;;;;;;;;;;5042599;28;1571;-74
2022/06/21 06:13:41;;;;;;;;;;;;;;;;;;5042605;28;1539;-73
2022/06/21 06:16:10;;;;;;;;;;;;;;;;;;5042339;28;1496;-74
2022/06/21 06:18:42;;;;;;;;;;;;;;;;;;5042255;28;1894;-73
2022/06/21 06:21:07;;;;;;;;;;;;;;;;;;5042733;28;1555;-74
2022/06/21 06:23:40;;;;;;;;;;;;;;;;;;5042151;28;1496;-74
2022/06/21 06:26:12;;;;;;;;;;;;;;;;;;5036970;28;1497;-75
2022/06/21 06:28:44;;;;;;;;;;;;;;;;;;5038567;28;1567;-75
2022/06/21 06:31:18;;;;;;;;;;;;;;;;;;5054498;28;1573;-73
2022/06/21 06:33:45;;;;;;;;;;;;;;;;;;5051130;28;1429;-74
2022/06/21 06:36:15;;;;;;;;;;;;;;;;;;5056087;28;1306;-75
2022/06/21 06:38:41;;;;;;;;;;;;;;;;;;5052352;28;1901;-75
2022/06/21 06:41:41;;;;;;;;;;;;;;;;;;5055205;28;1215;-74
2022/06/21 06:44:09;;;;;;;;;;;;;;;;;;5042786;28;1231;-76
2022/06/21 06:46:36;;;;;;;;;;;;;;;;;;5051995;28;1390;-77
2022/06/21 06:49:06;;;;;;;;;;;;;;;;;;5045323;28;1250;-77
2022/06/21 06:51:41;;;;;;;;;;;;;;;;;;5047799;28;1314;-76
2022/06/21 06:54:15;;;;;;;;;;;;;;;;;;5054856;28;1213;-76
2022/06/21 06:56:50;;;;;;;;;;;;;;;;;;5054277;28;1302;-75
2022/06/21 06:59:16;;;;;;;;;;;;;;;;;;5032976;28;1307;-77
2022/06/21 07:01:44;;;;;;;;;;;;;;;;;;5053110;28;1248;-74
2022/06/21 07:04:11;;;;;;;;;;;;;;;;;;5051651;28;1283;-72
2022/06/21 07:06:39;;;;;;;;;;;;;;;;;;5050984;28;1216;-72
2022/06/21 07:09:16;;;;;;;;;;;;;;;;;;5054469;28;1326;-72
2022/06/21 07:11:41;;;;;;;;;;;;;;;;;;5050832;28;1362;-73
2022/06/21 07:14:13;;;;;;;;;;;;;;;;;;5053777;28;1338;-73
2022/06/21 07:16:39;;;;;;;;;;;;;;;;;;5053911;28;1294;-73
2022/06/21 07:19:04;;;;;;;;;;;;;;;;;;5054608;28;1905;-73
2022/06/21 07:21:30;;;;;;;;;;;;;;;;;;5048821;28;1295;-73
2022/06/21 07:23:59;;;;;;;;;;;;;;;;;;5045631;28;1275;-73
2022/06/21 07:26:30;;;;;;;;;;;;;;;;;;5041583;28;1484;-72
2022/06/21 07:28:58;;;;;;;;;;;;;;;;;;5040467;28;1488;-73
2022/06/21 07:31:29;;;;;;;;;;;;;;;;;;5040805;28;1498;-73
2022/06/21 07:34:03;;;;;;;;;;;;;;;;;;5041818;28;1406;-72
2022/06/21 07:36:33;;;;;;;;;;;;;;;;;;5041233;28;1860;-72
2022/06/21 07:39:06;;;;;;;;;;;;;;;;;;5041518;28;1963;-72
2022/06/21 07:41:45;;;;;;;;;;;;;;;;;;5042733;28;1393;-72
2022/06/21 07:44:28;;;;;;;;;;;;;;;;;;5042058;28;1430;-73
2022/06/21 07:46:56;;;;;;;;;;;;;;;;;;5035994;28;1440;-72
2022/06/21 07:49:25;;;;;;;;;;;;;;;;;;5040767;28;1612;-72
2022/06/21 07:51:52;;;;;;;;;;;;;;;;;;5041379;28;1441;-72
2022/06/21 07:54:20;;;;;;;;;;;;;;;;;;5041425;28;1468;-73
2022/06/21 07:56:49;;;;;;;;;;;;;;;;;;5040606;28;1512;-78
2022/06/21 07:59:18;;;;;;;;;;;;;;;;;;5031279;28;1966;-74
2022/06/21 08:07:52;;;;;;;;;;;;;;;;;;5046671;28;1326;-74
2022/06/21 08:10:26;;;;;;;;;;;;;;;;;;5049226;28;1392;-74
2022/06/21 08:12:53;;;;;;;;;;;;;;;;;;5048607;28;1504;-79
2022/06/21 08:15:18;;;;;;;;;;;;;;;;;;5050840;28;1409;-74
2022/06/21 08:17:46;;;;;;;;;;;;;;;;;;5048248;28;1886;-74
2022/06/21 08:20:21;;;;;;;;;;;;;;;;;;5055623;28;1260;-78
2022/06/21 08:22:52;;;;;;;;;;;;;;;;;;5048743;28;1302;-74
2022/06/21 08:25:36;;;;;;;;;;;;;;;;;;5052155;28;1342;-73
2022/06/21 08:28:10;;;;;;;;;;;;;;;;;;5054753;28;1341;-73
2022/06/21 08:30:38;;;;;;;;;;;;;;;;;;5050245;28;1232;-82
2022/06/21 08:33:06;;;;;;;;;;;;;;;;;;5048859;28;1254;-73
2022/06/21 08:35:37;;;;;;;;;;;;;;;;;;5043062;28;1255;-73
2022/06/21 08:38:05;;;;;;;;;;;;;;;;;;5047086;28;1898;-77
2022/06/21 08:40:49;;;;;;;;;;;;;;;;;;5046895;28;1250;-77
2022/06/21 08:43:14;;;;;;;;;;;;;;;;;;5047115;28;1216;-82
2022/06/21 08:45:58;;;;;;;;;;;;;;;;;;5052058;28;1255;-80
2022/06/21 08:48:29;;;;;;;;;;;;;;;;;;5044814;28;1272;-83
2022/06/21 08:51:14;;;;;;;;;;;;;;;;;;5051703;28;1274;-83
2022/06/21 08:53:55;;;;;;;;;;;;;;;;;;5045391;28;1501;-78
2022/06/21 08:56:23;;;;;;;;;;;;;;;;;;5053942;28;1140;-81
2022/06/21 08:58:48;;;;;;;;;;;;;;;;;;5050345;28;1949;-81
2022/06/21 09:01:18;;;;;;;;;;;;;;;;;;5052442;28;1230;-76
2022/06/21 09:04:06;;;;;;;;;;;;;;;;;;5051443;28;1232;-72
2022/06/21 09:06:41;;;;;;;;;;;;;;;;;;5033827;28;1299;-73
2022/06/21 09:09:20;;;;;;;;;;;;;;;;;;5052052;28;1368;-72
2022/06/21 09:11:55;;;;;;;;;;;;;;;;;;5051638;28;1255;-69
2022/06/21 09:14:20;;;;;;;;;;;;;;;;;;5051276;28;1256;-69
2022/06/21 09:16:45;;;;;;;;;;;;;;;;;;5045625;28;1262;-68
2022/06/21 09:19:13;;;;;;;;;;;;;;;;;;5054369;28;1871;-69
2022/06/21 09:22:00;;;;;;;;;;;;;;;;;;5048340;28;1358;-70
2022/06/21 09:24:38;;;;;;;;;;;;;;;;;;5047888;28;1152;-68
2022/06/21 09:27:12;;;;;;;;;;;;;;;;;;5047578;28;1274;-69
2022/06/21 09:29:55;;;;;;;;;;;;;;;;;;5049507;28;1295;-68
2022/06/21 09:32:39;;;;;;;;;;;;;;;;;;5053152;28;1300;-68
2022/06/21 09:35:05;;;;;;;;;;;;;;;;;;5049634;28;1310;-67
2022/06/21 09:37:34;;;;;;;;;;;;;;;;;;5051010;28;1917;-67
2022/06/21 09:40:19;;;;;;;;;;;;;;;;;;5049805;28;1275;-68
2022/06/21 09:43:00;;;;;;;;;;;;;;;;;;5047464;28;1287;-68
2022/06/21 09:45:43;;;;;;;;;;;;;;;;;;5053678;28;1373;-68
2022/06/21 09:48:24;;;;;;;;;;;;;;;;;;5056820;28;1472;-68
2022/06/21 09:50:49;;;;;;;;;;;;;;;;;;5053818;28;1323;-68
2022/06/21 09:53:37;;;;;;;;;;;;;;;;;;5051888;28;1222;-68
2022/06/21 09:56:09;;;;;;;;;;;;;;;;;;5052585;28;1267;-68
2022/06/21 09:58:34;;;;;;;;;;;;;;;;;;5055760;28;1964;-67
2022/06/21 10:01:00;;;;;;;;;;;;;;;;;;5051468;28;1298;-68
2022/06/21 10:03:31;;;;;;;;;;;;;;;;;;5049487;28;1591;-67
2022/06/21 10:06:02;;;;;;;;;;;;;;;;;;5052548;28;1234;-67
2022/06/21 10:08:40;;;;;;;;;;;;;;;;;;5052025;28;1263;-68
2022/06/21 10:11:08;;;;;;;;;;;;;;;;;;5051497;28;1168;-67
2022/06/21 10:13:52;;;;;;;;;;;;;;;;;;5048626;28;1274;-68
2022/06/21 10:16:26;;;;;;;;;;;;;;;;;;5052550;28;1266;-68
2022/06/21 10:18:54;;;;;;;;;;;;;;;;;;5049246;28;1898;-68
2022/06/21 10:21:38;;;;;;;;;;;;;;;;;;5050367;28;1231;-67
2022/06/21 10:24:06;;;;;;;;;;;;;;;;;;5052746;28;1432;-68
2022/06/21 10:26:35;;;;;;;;;;;;;;;;;;5054509;28;1409;-67
2022/06/21 10:29:19;;;;;;;;;;;;;;;;;;5049659;28;1327;-68
2022/06/21 10:31:53;;;;;;;;;;;;;;;;;;5049345;28;1438;-67
2022/06/21 10:34:44;;;;;;;;;;;;;;;;;;5052265;28;1306;-67
2022/06/21 10:37:23;;;;;;;;;;;;;;;;;;5035889;28;2144;-68
2022/06/21 10:39:51;;;;;;;;;;;;;;;;;;5047551;28;1889;-67
2022/06/21 10:45:18;;;;;;;;;;;;;;;;;;5042697;28;1321;-66
2022/06/21 10:47:52;;;;;;;;;;;;;;;;;;5050465;28;1231;-67
2022/06/21 10:50:17;;;;;;;;;;;;;;;;;;5049119;28;1313;-68
2022/06/21 10:53:05;;;;;;;;;;;;;;;;;;5053384;28;1447;-70
2022/06/21 10:55:48;;;;;;;;;;;;;;;;;;4998909;28;1698;-67
2022/06/21 10:58:43;;;;;;;;;;;;;;;;;;5047981;28;2185;-69
2022/06/21 11:01:38;;;;;;;;;;;;;;;;;;5030287;28;1376;-68
2022/06/21 11:04:15;;;;;;;;;;;;;;;;;;5018552;28;1792;-69
2022/06/21 11:06:44;;;;;;;;;;;;;;;;;;5049107;28;1302;-70
2022/06/21 11:09:13;;;;;;;;;;;;;;;;;;5051627;28;1284;-68
2022/06/21 11:11:50;;;;;;;;;;;;;;;;;;5049822;28;1431;-70
2022/06/21 11:14:24;;;;;;;;;;;;;;;;;;5050906;28;1438;-67
2022/06/21 11:17:01;;;;;;;;;;;;;;;;;;5051344;28;1232;-67
2022/06/21 11:19:42;;;;;;;;;;;;;;;;;;5048256;28;1358;-66
2022/06/21 11:22:08;;;;;;;;;;;;;;;;;;5044970;28;1196;-66
2022/06/21 11:24:39;;;;;;;;;;;;;;;;;;5048993;28;1262;-66
2022/06/21 11:27:05;;;;;;;;;;;;;;;;;;5025026;28;1257;-67
2022/06/21 11:29:39;;;;;;;;;;;;;;;;;;5043283;28;1299;-68
2022/06/21 11:32:16;;;;;;;;;;;;;;;;;;5043333;28;1493;-66
2022/06/21 11:34:59;;;;;;;;;;;;;;;;;;5047037;28;1239;-65
2022/06/21 11:37:40;;;;;;;;;;;;;;;;;;5040697;28;1969;-66
2022/06/21 11:40:18;;;;;;;;;;;;;;;;;;5047169;28;1330;-65
2022/06/21 11:42:50;;;;;;;;;;;;;;;;;;5048096;28;1287;-66
2022/06/21 11:45:18;;;;;;;;;;;;;;;;;;5047460;28;1588;-65
2022/06/21 11:48:01;;;;;;;;;;;;;;;;;;5049325;28;1227;-65
2022/06/21 11:50:45;;;;;;;;;;;;;;;;;;5050085;28;1275;-66
2022/06/21 11:53:29;;;;;;;;;;;;;;;;;;5041611;28;1240;-65
2022/06/21 11:56:06;;;;;;;;;;;;;;;;;;5043537;28;1219;-65
2022/06/21 11:58:35;;;;;;;;;;;;;;;;;;5048234;28;1897;-65
2022/06/21 12:01:19;;;;;;;;;;;;;;;;;;5046129;28;1527;-66
2022/06/21 12:04:03;;;;;;;;;;;;;;;;;;5049002;28;1278;-65
2022/06/21 12:06:45;;;;;;;;;;;;;;;;;;5050199;28;1417;-66
2022/06/21 12:09:13;;;;;;;;;;;;;;;;;;5048439;28;1405;-65
2022/06/21 12:11:47;;;;;;;;;;;;;;;;;;5045215;28;1452;-64
2022/06/21 12:14:13;;;;;;;;;;;;;;;;;;5046560;28;1310;-65
2022/06/21 12:16:50;;;;;;;;;;;;;;;;;;5049509;28;1350;-64
2022/06/21 12:19:28;;;;;;;;;;;;;;;;;;5051348;28;1886;-65
2022/06/21 12:22:16;;;;;;;;;;;;;;;;;;5051881;28;1322;-65
2022/06/21 12:24:41;;;;;;;;;;;;;;;;;;5051591;28;1995;-65
2022/06/21 12:27:10;;;;;;;;;;;;;;;;;;5046975;28;1232;-65
2022/06/21 12:29:36;;;;;;;;;;;;;;;;;;5047879;28;1370;-65
2022/06/21 12:32:03;;;;;;;;;;;;;;;;;;5047088;28;1835;-65
2022/06/21 12:34:34;;;;;;;;;;;;;;;;;;5053539;28;1333;-64
2022/06/21 12:37:01;;;;;;;;;;;;;;;;;;5049288;28;1236;-65
2022/06/21 12:39:36;;;;;;;;;;;;;;;;;;5054722;28;1897;-66
2022/06/21 12:42:05;;;;;;;;;;;;;;;;;;5054333;28;1201;-65
2022/06/21 12:44:37;;;;;;;;;;;;;;;;;;5048325;28;1310;-65
2022/06/21 12:47:19;;;;;;;;;;;;;;;;;;5052480;28;1228;-65
2022/06/21 12:49:51;;;;;;;;;;;;;;;;;;5048888;28;1315;-65
2022/06/21 12:52:16;;;;;;;;;;;;;;;;;;5055163;28;1226;-65
2022/06/21 12:54:50;;;;;;;;;;;;;;;;;;5033941;28;1288;-65
2022/06/21 12:57:23;;;;;;;;;;;;;;;;;;5058570;28;1953;-66
2022/06/21 13:00:03;;;;;;;;;;;;;;;;;;5053922;28;1314;-64
2022/06/21 13:02:36;;;;;;;;;;;;;;;;;;5037595;28;1239;-65
2022/06/21 13:05:19;;;;;;;;;;;;;;;;;;5051506;28;1262;-66
2022/06/21 13:07:48;;;;;;;;;;;;;;;;;;5052808;28;1287;-65
2022/06/21 13:10:21;;;;;;;;;;;;;;;;;;5049739;28;1321;-66
2022/06/21 13:13:06;;;;;;;;;;;;;;;;;;5053397;28;1303;-66
2022/06/21 13:15:50;;;;;;;;;;;;;;;;;;5048927;28;1489;-67
2022/06/21 13:18:15;;;;;;;;;;;;;;;;;;5051728;28;1905;-67
2022/06/21 13:20:40;;;;;;;;;;;;;;;;;;5053159;28;1266;-67
2022/06/21 13:23:29;;;;;;;;;;;;;;;;;;5049844;28;1251;-68
2022/06/21 13:25:54;;;;;;;;;;;;;;;;;;5047786;28;1877;-67
2022/06/21 13:28:25;;;;;;;;;;;;;;;;;;5048871;28;1453;-66
2022/06/21 13:30:54;;;;;;;;;;;;;;;;;;5052330;28;1224;-66
2022/06/21 13:33:48;;;;;;;;;;;;;;;;;;5045592;28;1116;-65
2022/06/21 13:36:15;;;;;;;;;;;;;;;;;;5055012;28;1309;-65
2022/06/21 13:38:47;;;;;;;;;;;;;;;;;;5045560;28;1905;-65
2022/06/21 13:44:22;;;;;;;;;;;;;;;;;;5052212;28;1080;-65
2022/06/21 13:46:50;;;;;;;;;;;;;;;;;;5051733;28;1345;-65
2022/06/21 13:49:19;;;;;;;;;;;;;;;;;;5038483;28;1302;-65
2022/06/21 13:51:58;;;;;;;;;;;;;;;;;;5053766;28;1348;-65
2022/06/21 13:54:28;;;;;;;;;;;;;;;;;;5029368;28;1405;-65
2022/06/21 13:57:07;;;;;;;;;;;;;;;;;;5048931;28;1243;-65
2022/06/21 13:59:37;;;;;;;;;;;;;;;;;;5048608;28;1267;-65
2022/06/21 14:02:05;;;;;;;;;;;;;;;;;;5048931;28;1234;-65
2022/06/21 14:04:32;;;;;;;;;;;;;;;;;;5031648;28;1239;-65
2022/06/21 14:07:18;;;;;;;;;;;;;;;;;;5056494;28;1322;-65
2022/06/21 14:09:54;;;;;;;;;;;;;;;;;;5058494;28;1306;-66
2022/06/21 14:12:28;;;;;;;;;;;;;;;;;;5047921;28;1251;-65
2022/06/21 14:15:13;;;;;;;;;;;;;;;;;;5052890;28;1275;-65
2022/06/21 14:17:43;;;;;;;;;;;;;;;;;;5049145;28;1897;-65
2022/06/21 14:20:20;;;;;;;;;;;;;;;;;;5049155;28;1279;-66
2022/06/21 14:22:51;;;;;;;;;;;;;;;;;;5051997;28;1512;-65
2022/06/21 14:25:35;;;;;;;;;;;;;;;;;;5053869;28;1306;-64
2022/06/21 14:28:20;;;;;;;;;;;;;;;;;;5044759;28;1659;-64
2022/06/21 14:30:45;;;;;;;;;;;;;;;;;;5048045;28;1525;-65
2022/06/21 14:33:29;;;;;;;;;;;;;;;;;;5053181;28;1515;-65
2022/06/21 14:35:58;;;;;;;;;;;;;;;;;;5051237;28;1270;-65
2022/06/21 14:38:27;;;;;;;;;;;;;;;;;;5047533;28;1902;-64
2022/06/21 14:41:12;;;;;;;;;;;;;;;;;;5044787;28;1453;-64
2022/06/21 14:43:40;;;;;;;;;;;;;;;;;;5054267;28;1305;-65
2022/06/21 14:46:27;;;;;;;;;;;;;;;;;;5051897;28;1439;-64
2022/06/21 14:48:57;;;;;;;;;;;;;;;;;;5047896;28;1272;-65
2022/06/21 14:51:31;;;;;;;;;;;;;;;;;;5048318;28;1504;-65
2022/06/21 14:54:16;;;;;;;;;;;;;;;;;;5051749;28;1220;-64
2022/06/21 14:57:00;;;;;;;;;;;;;;;;;;5048974;28;1267;-65
2022/06/21 14:59:41;;;;;;;;;;;;;;;;;;5045988;28;1959;-64
2022/06/21 15:02:11;;;;;;;;;;;;;;;;;;5055314;28;1298;-65
2022/06/21 15:04:42;;;;;;;;;;;;;;;;;;5048562;28;1547;-65
2022/06/21 15:07:10;;;;;;;;;;;;;;;;;;5050412;28;1283;-66
2022/06/21 15:09:43;;;;;;;;;;;;;;;;;;5047030;28;1278;-66
2022/06/21 15:12:10;;;;;;;;;;;;;;;;;;5054955;28;1202;-65
2022/06/21 15:14:37;;;;;;;;;;;;;;;;;;5048964;28;1286;-65
2022/06/21 15:17:02;;;;;;;;;;;;;;;;;;5048425;28;1306;-66
2022/06/21 15:19:56;;;;;;;;;;;;;;;;;;5046655;28;1893;-65
2022/06/21 15:22:36;;;;;;;;;;;;;;;;;;5045149;28;1202;-65
2022/06/21 15:25:14;;;;;;;;;;;;;;;;;;5046345;28;1275;-65
2022/06/21 15:27:42;;;;;;;;;;;;;;;;;;5047915;28;1536;-65
2022/06/21 15:30:08;;;;;;;;;;;;;;;;;;5050105;28;1235;-65
2022/06/21 15:32:40;;;;;;;;;;;;;;;;;;5051987;28;1369;-65
2022/06/21 15:35:06;;;;;;;;;;;;;;;;;;5048759;28;1322;-65
2022/06/21 15:37:51;;;;;;;;;;;;;;;;;;5034590;28;1973;-65
2022/06/21 15:40:16;;;;;;;;;;;;;;;;;;5049023;28;2163;-66
2022/06/21 15:42:56;;;;;;;;;;;;;;;;;;5051292;28;1392;-66
2022/06/21 15:45:28;;;;;;;;;;;;;;;;;;5050864;28;1144;-66
2022/06/21 15:50:53;;;;;;;;;;;;;;;;;;5047453;28;1191;-66
2022/06/21 15:53:22;;;;;;;;;;;;;;;;;;5051372;28;1283;-66
2022/06/21 15:55:53;;;;;;;;;;;;;;;;;;5049755;28;1215;-66
2022/06/21 15:58:26;;;;;;;;;;;;;;;;;;5048431;28;1897;-66
2022/06/21 16:01:01;;;;;;;;;;;;;;;;;;5050848;28;1294;-66
2022/06/21 16:03:28;;;;;;;;;;;;;;;;;;5043589;28;1225;-66
2022/06/21 16:06:10;;;;;;;;;;;;;;;;;;5052537;28;1227;-66
2022/06/21 16:08:38;;;;;;;;;;;;;;;;;;5050603;28;1310;-66
2022/06/21 16:11:30;;;;;;;;;;;;;;;;;;5049493;28;1239;-66
2022/06/21 16:13:57;;;;;;;;;;;;;;;;;;5043264;28;1285;-66
2022/06/21 16:16:24;;;;;;;;;;;;;;;;;;5052343;28;1298;-65
2022/06/21 16:18:52;;;;;;;;;;;;;;;;;;5047239;28;1947;-67
2022/06/21 16:21:38;;;;;;;;;;;;;;;;;;5042540;28;1271;-67
2022/06/21 16:24:10;;;;;;;;;;;;;;;;;;5041045;28;1772;-66
2022/06/21 16:26:45;;;;;;;;;;;;;;;;;;5041346;28;807;-66
2022/06/21 16:29:11;;;;;;;;;;;;;;;;;;5041156;28;1192;-66
2022/06/21 16:34:43;;;;;;;;;;;;;;;;;;5037867;28;2201;-66
2022/06/21 16:37:15;;;;;;;;;;;;;;;;;;5046942;28;1755;-65
2022/06/21 16:39:50;;;;;;;;;;;;;;;;;;5024186;28;1724;-66
2022/06/21 16:45:26;;;;;;;;;;;;;;;;;;5049389;28;1355;-66
2022/06/21 16:47:59;;;;;;;;;;;;;;;;;;5051352;28;1283;-66
2022/06/21 16:50:24;;;;;;;;;;;;;;;;;;5051035;28;1318;-65
2022/06/21 16:52:49;;;;;;;;;;;;;;;;;;5051580;28;1736;-65
2022/06/21 16:55:16;;;;;;;;;;;;;;;;;;5049430;28;1547;-65
2022/06/21 16:57:43;;;;;;;;;;;;;;;;;;5048751;28;1979;-65
2022/06/21 17:00:28;;;;;;;;;;;;;;;;;;5048107;28;1295;-67
2022/06/21 17:02:56;;;;;;;;;;;;;;;;;;5051575;28;1299;-65
2022/06/21 17:05:29;;;;;;;;;;;;;;;;;;5026655;28;1692;-66
2022/06/21 17:07:55;;;;;;;;;;;;;;;;;;5051262;28;1334;-67
2022/06/21 17:11:25;;;;;;;;;;;;;;;;;;5049939;28;1271;-66
2022/06/21 17:13:19;;;;;;;;;;;;;;;;;;5050654;28;1455;-66
2022/06/21 17:15:45;;;;;;;;;;;;;;;;;;5051357;28;1246;-69
2022/06/21 17:18:14;;;;;;;;;;;;;;;;;;5049016;28;1961;-69
2022/06/21 17:20:57;;;;;;;;;;;;;;;;;;5049740;28;1243;-68
2022/06/21 17:23:22;;;;;;;;;;;;;;;;;;5045056;28;1236;-67
2022/06/21 17:26:09;;;;;;;;;;;;;;;;;;5051818;28;1297;-67
2022/06/21 17:28:50;;;;;;;;;;;;;;;;;;5050418;28;1588;-68
2022/06/21 17:31:21;;;;;;;;;;;;;;;;;;5053033;28;1279;-68
2022/06/21 17:33:51;;;;;;;;;;;;;;;;;;5051162;28;1215;-67
2022/06/21 17:36:21;;;;;;;;;;;;;;;;;;5050470;28;1444;-67
2022/06/21 17:38:52;;;;;;;;;;;;;;;;;;5051691;28;1965;-68
2022/06/21 17:41:20;;;;;;;;;;;;;;;;;;5038179;28;1480;-67
2022/06/21 17:43:51;;;;;;;;;;;;;;;;;;5059674;28;1231;-68
2022/06/21 17:46:17;;;;;;;;;;;;;;;;;;5050343;28;1215;-67
2022/06/21 17:48:45;;;;;;;;;;;;;;;;;;5054200;28;1487;-69
2022/06/21 17:51:13;;;;;;;;;;;;;;;;;;5049104;28;1204;-69
2022/06/21 17:53:44;;;;;;;;;;;;;;;;;;5046780;28;1488;-69
2022/06/21 17:56:20;;;;;;;;;;;;;;;;;;5049604;28;1700;-68
2022/06/21 17:58:47;;;;;;;;;;;;;;;;;;5046431;28;1894;-68
2022/06/21 18:01:31;;;;;;;;;;;;;;;;;;5044440;28;1334;-68
2022/06/21 18:04:12;;;;;;;;;;;;;;;;;;5043600;28;1393;-68
2022/06/21 18:06:38;;;;;;;;;;;;;;;;;;5043085;28;1428;-68